sensor_id;sensor_type;location;lat;lon;timestamp;temperature;humidity
18450;DHT22;9354;50.194;7.690;2023-04-01T00:01:15;9.60;99.90
18450;DHT22;9354;50.194;7.690;2023-04-01T00:03:43;9.60;99.90
18450;DHT22;9354;50.194;7.690;2023-04-01T00:06:13;9.50;99.90
18450;DHT22;9354;50.194;7.690;2023-04-01T00:08:41;9.50;99.90
18450;DHT22;9354;50.194;7.690;2023-04-01T00:11:08;9.50;99.90
18450;DHT22;9354;50.194;7.690;2023-04-01T00:13:36;9.40;99.90
18450;DHT22;9354;50.194;7.690;2023-04-01T00:16:05;9.40;99.90
18450;DHT22;9354;50.194;7.690;2023-04-01T00:18:33;9.40;99.90
18450;DHT22;9354;50.194;7.690;2023-04-01T00:21:00;9.40;99.90
18450;DHT22;9354;50.194;7.690;2023-04-01T00:23:28;9.40;99.90
18450;DHT22;9354;50.194;7.690;2023-04-01T00:25:55;9.30;99.90
18450;DHT22;9354;50.194;7.690;2023-04-01T00:28:22;9.30;99.90
18450;DHT22;9354;50.194;7.690;2023-04-01T00:30:50;9.40;99.90
18450;DHT22;9354;50.194;7.690;2023-04-01T00:33:18;9.30;99.90
18450;DHT22;9354;50.194;7.690;2023-04-01T00:35:46;9.30;99.90
18450;DHT22;9354;50.194;7.690;2023-04-01T00:38:14;9.30;99.90
18450;DHT22;9354;50.194;7.690;2023-04-01T00:40:44;9.30;99.90
18450;DHT22;9354;50.194;7.690;2023-04-01T00:43:14;9.30;99.90
18450;DHT22;9354;50.194;7.690;2023-04-01T00:45:43;9.30;99.90
18450;DHT22;9354;50.194;7.690;2023-04-01T00:48:14;9.30;99.90
18450;DHT22;9354;50.194;7.690;2023-04-01T00:50:46;9.20;99.90
18450;DHT22;9354;50.194;7.690;2023-04-01T00:53:16;9.30;99.90
18450;DHT22;9354;50.194;7.690;2023-04-01T00:55:49;9.30;99.90
18450;DHT22;9354;50.194;7.690;2023-04-01T00:58:21;9.30;99.90
18450;DHT22;9354;50.194;7.690;2023-04-01T01:00:51;9.30;99.90
18450;DHT22;9354;50.194;7.690;2023-04-01T01:03:19;9.30;99.90
18450;DHT22;9354;50.194;7.690;2023-04-01T01:09:00;9.30;99.90
18450;DHT22;9354;50.194;7.690;2023-04-01T01:11:35;9.40;99.90
18450;DHT22;9354;50.194;7.690;2023-04-01T01:14:09;9.30;99.90
18450;DHT22;9354;50.194;7.690;2023-04-01T01:16:43;9.30;99.90
18450;DHT22;9354;50.194;7.690;2023-04-01T01:19:31;9.30;99.90
18450;DHT22;9354;50.194;7.690;2023-04-01T01:25:32;9.30;99.90
18450;DHT22;9354;50.194;7.690;2023-04-01T01:28:14;9.30;99.90
18450;DHT22;9354;50.194;7.690;2023-04-01T01:30:52;9.30;99.90
18450;DHT22;9354;50.194;7.690;2023-04-01T01:33:47;9.30;99.90
18450;DHT22;9354;50.194;7.690;2023-04-01T01:36:19;9.30;99.90
18450;DHT22;9354;50.194;7.690;2023-04-01T01:38:48;9.40;99.90
18450;DHT22;9354;50.194;7.690;2023-04-01T01:41:18;9.40;99.90
18450;DHT22;9354;50.194;7.690;2023-04-01T01:43:49;9.30;99.90
18450;DHT22;9354;50.194;7.690;2023-04-01T01:46:20;9.30;99.90
18450;DHT22;9354;50.194;7.690;2023-04-01T01:48:50;9.30;99.90
18450;DHT22;9354;50.194;7.690;2023-04-01T01:51:21;9.30;99.90
18450;DHT22;9354;50.194;7.690;2023-04-01T01:53:49;9.30;99.90
18450;DHT22;9354;50.194;7.690;2023-04-01T01:56:18;9.30;99.90
18450;DHT22;9354;50.194;7.690;2023-04-01T01:58:48;9.30;99.90
18450;DHT22;9354;50.194;7.690;2023-04-01T02:01:19;9.30;99.90
18450;DHT22;9354;50.194;7.690;2023-04-01T02:03:48;9.30;99.90
18450;DHT22;9354;50.194;7.690;2023-04-01T02:06:19;9.30;99.90
18450;DHT22;9354;50.194;7.690;2023-04-01T02:08:51;9.30;99.90
18450;DHT22;9354;50.194;7.690;2023-04-01T02:11:24;9.30;99.90
18450;DHT22;9354;50.194;7.690;2023-04-01T02:13:55;9.20;99.90
18450;DHT22;9354;50.194;7.690;2023-04-01T02:16:25;9.20;99.90
18450;DHT22;9354;50.194;7.690;2023-04-01T02:18:57;9.20;99.90
18450;DHT22;9354;50.194;7.690;2023-04-01T02:21:29;9.20;99.90
18450;DHT22;9354;50.194;7.690;2023-04-01T02:24:00;9.20;99.90
18450;DHT22;9354;50.194;7.690;2023-04-01T02:26:28;9.20;99.90
18450;DHT22;9354;50.194;7.690;2023-04-01T02:28:57;9.20;99.90
18450;DHT22;9354;50.194;7.690;2023-04-01T02:31:26;9.20;99.90
18450;DHT22;9354;50.194;7.690;2023-04-01T02:33:54;9.30;99.90
18450;DHT22;9354;50.194;7.690;2023-04-01T02:36:22;9.20;99.90
18450;DHT22;9354;50.194;7.690;2023-04-01T02:38:51;9.20;99.90
18450;DHT22;9354;50.194;7.690;2023-04-01T02:41:20;9.20;99.90
18450;DHT22;9354;50.194;7.690;2023-04-01T02:43:47;9.20;99.90
18450;DHT22;9354;50.194;7.690;2023-04-01T02:46:16;9.20;99.90
18450;DHT22;9354;50.194;7.690;2023-04-01T02:48:43;9.20;99.90
18450;DHT22;9354;50.194;7.690;2023-04-01T02:51:11;9.10;99.90
18450;DHT22;9354;50.194;7.690;2023-04-01T02:53:38;9.10;99.90
18450;DHT22;9354;50.194;7.690;2023-04-01T02:56:07;9.10;99.90
18450;DHT22;9354;50.194;7.690;2023-04-01T02:58:34;9.10;99.90
18450;DHT22;9354;50.194;7.690;2023-04-01T03:01:02;9.10;99.90
18450;DHT22;9354;50.194;7.690;2023-04-01T03:03:29;9.10;99.90
18450;DHT22;9354;50.194;7.690;2023-04-01T03:05:56;9.10;99.90
18450;DHT22;9354;50.194;7.690;2023-04-01T03:08:26;9.10;99.90
18450;DHT22;9354;50.194;7.690;2023-04-01T03:10:53;9.10;99.90
18450;DHT22;9354;50.194;7.690;2023-04-01T03:13:22;9.10;99.90
18450;DHT22;9354;50.194;7.690;2023-04-01T03:15:49;9.10;99.90
18450;DHT22;9354;50.194;7.690;2023-04-01T03:18:16;9.10;99.90
18450;DHT22;9354;50.194;7.690;2023-04-01T03:20:44;9.10;99.90
18450;DHT22;9354;50.194;7.690;2023-04-01T03:23:12;9.10;99.90
18450;DHT22;9354;50.194;7.690;2023-04-01T03:25:40;9.10;99.90
18450;DHT22;9354;50.194;7.690;2023-04-01T03:28:07;9.10;99.90
18450;DHT22;9354;50.194;7.690;2023-04-01T03:30:36;9.10;99.90
18450;DHT22;9354;50.194;7.690;2023-04-01T03:33:03;9.10;99.90
18450;DHT22;9354;50.194;7.690;2023-04-01T03:35:31;9.10;99.90
18450;DHT22;9354;50.194;7.690;2023-04-01T03:37:58;9.10;99.90
18450;DHT22;9354;50.194;7.690;2023-04-01T03:40:26;9.10;99.90
18450;DHT22;9354;50.194;7.690;2023-04-01T03:42:53;9.10;99.90
18450;DHT22;9354;50.194;7.690;2023-04-01T03:45:22;9.10;99.90
18450;DHT22;9354;50.194;7.690;2023-04-01T03:47:50;9.10;99.90
18450;DHT22;9354;50.194;7.690;2023-04-01T03:50:18;9.10;99.90
18450;DHT22;9354;50.194;7.690;2023-04-01T03:52:45;9.10;99.90
18450;DHT22;9354;50.194;7.690;2023-04-01T03:55:13;9.10;99.90
18450;DHT22;9354;50.194;7.690;2023-04-01T03:57:40;9.10;99.90
18450;DHT22;9354;50.194;7.690;2023-04-01T04:00:09;9.10;99.90
18450;DHT22;9354;50.194;7.690;2023-04-01T04:02:37;9.10;99.90
18450;DHT22;9354;50.194;7.690;2023-04-01T04:05:06;9.10;99.90
18450;DHT22;9354;50.194;7.690;2023-04-01T04:07:34;9.10;99.90
18450;DHT22;9354;50.194;7.690;2023-04-01T04:10:02;9.10;99.90
18450;DHT22;9354;50.194;7.690;2023-04-01T04:12:29;9.20;99.90
18450;DHT22;9354;50.194;7.690;2023-04-01T04:14:56;9.10;99.90
18450;DHT22;9354;50.194;7.690;2023-04-01T04:17:26;9.10;99.90
18450;DHT22;9354;50.194;7.690;2023-04-01T04:19:53;9.10;99.90
18450;DHT22;9354;50.194;7.690;2023-04-01T04:22:22;9.10;99.90
18450;DHT22;9354;50.194;7.690;2023-04-01T04:24:49;9.00;99.90
18450;DHT22;9354;50.194;7.690;2023-04-01T04:27:17;9.00;99.90
18450;DHT22;9354;50.194;7.690;2023-04-01T04:29:44;9.00;99.90
18450;DHT22;9354;50.194;7.690;2023-04-01T04:32:12;9.00;99.90
18450;DHT22;9354;50.194;7.690;2023-04-01T04:34:39;9.00;99.90
18450;DHT22;9354;50.194;7.690;2023-04-01T04:37:07;9.00;99.90
18450;DHT22;9354;50.194;7.690;2023-04-01T04:39:35;9.00;99.90
18450;DHT22;9354;50.194;7.690;2023-04-01T04:42:03;9.00;99.90
18450;DHT22;9354;50.194;7.690;2023-04-01T04:44:30;9.00;99.90
18450;DHT22;9354;50.194;7.690;2023-04-01T04:46:58;9.00;99.90
18450;DHT22;9354;50.194;7.690;2023-04-01T04:49:25;9.00;99.90
18450;DHT22;9354;50.194;7.690;2023-04-01T04:51:53;9.00;99.90
18450;DHT22;9354;50.194;7.690;2023-04-01T04:54:20;9.00;99.90
18450;DHT22;9354;50.194;7.690;2023-04-01T04:56:51;9.00;99.90
18450;DHT22;9354;50.194;7.690;2023-04-01T04:59:18;9.00;99.90
18450;DHT22;9354;50.194;7.690;2023-04-01T05:01:45;9.00;99.90
18450;DHT22;9354;50.194;7.690;2023-04-01T05:04:13;9.00;99.90
18450;DHT22;9354;50.194;7.690;2023-04-01T05:06:41;9.00;99.90
18450;DHT22;9354;50.194;7.690;2023-04-01T05:09:09;9.00;99.90
18450;DHT22;9354;50.194;7.690;2023-04-01T05:11:36;9.00;99.90
18450;DHT22;9354;50.194;7.690;2023-04-01T05:14:05;9.00;99.90
18450;DHT22;9354;50.194;7.690;2023-04-01T05:16:33;9.00;99.90
18450;DHT22;9354;50.194;7.690;2023-04-01T05:19:00;9.00;99.90
18450;DHT22;9354;50.194;7.690;2023-04-01T05:21:27;9.00;99.90
18450;DHT22;9354;50.194;7.690;2023-04-01T05:23:55;9.00;99.90
18450;DHT22;9354;50.194;7.690;2023-04-01T05:26:22;9.00;99.90
18450;DHT22;9354;50.194;7.690;2023-04-01T05:28:49;9.00;99.90
18450;DHT22;9354;50.194;7.690;2023-04-01T05:31:18;9.10;99.90
18450;DHT22;9354;50.194;7.690;2023-04-01T05:33:45;9.10;99.90
18450;DHT22;9354;50.194;7.690;2023-04-01T05:36:14;9.10;99.90
18450;DHT22;9354;50.194;7.690;2023-04-01T05:38:42;9.10;99.90
18450;DHT22;9354;50.194;7.690;2023-04-01T05:41:12;9.10;99.90
18450;DHT22;9354;50.194;7.690;2023-04-01T05:43:40;9.10;99.90
18450;DHT22;9354;50.194;7.690;2023-04-01T05:46:08;9.10;99.90
18450;DHT22;9354;50.194;7.690;2023-04-01T05:48:36;9.10;99.90
18450;DHT22;9354;50.194;7.690;2023-04-01T05:51:04;9.10;99.90
18450;DHT22;9354;50.194;7.690;2023-04-01T05:53:32;9.10;99.90
18450;DHT22;9354;50.194;7.690;2023-04-01T05:56:02;9.10;99.90
18450;DHT22;9354;50.194;7.690;2023-04-01T05:58:30;9.10;99.90
18450;DHT22;9354;50.194;7.690;2023-04-01T06:01:01;9.10;99.90
18450;DHT22;9354;50.194;7.690;2023-04-01T06:03:29;9.10;99.90
18450;DHT22;9354;50.194;7.690;2023-04-01T06:05:58;9.10;99.90
18450;DHT22;9354;50.194;7.690;2023-04-01T06:08:27;9.10;99.90
18450;DHT22;9354;50.194;7.690;2023-04-01T06:11:12;9.10;99.90
18450;DHT22;9354;50.194;7.690;2023-04-01T06:13:56;9.20;99.90
18450;DHT22;9354;50.194;7.690;2023-04-01T06:16:34;9.20;99.90
18450;DHT22;9354;50.194;7.690;2023-04-01T06:19:20;9.20;99.90
18450;DHT22;9354;50.194;7.690;2023-04-01T06:22:29;9.20;99.90
18450;DHT22;9354;50.194;7.690;2023-04-01T06:25:28;9.20;99.90
18450;DHT22;9354;50.194;7.690;2023-04-01T06:28:19;9.30;99.90
18450;DHT22;9354;50.194;7.690;2023-04-01T06:30:53;9.30;99.90
18450;DHT22;9354;50.194;7.690;2023-04-01T06:36:36;9.40;99.90
18450;DHT22;9354;50.194;7.690;2023-04-01T06:39:27;9.40;99.90
18450;DHT22;9354;50.194;7.690;2023-04-01T06:42:25;9.40;99.90
18450;DHT22;9354;50.194;7.690;2023-04-01T06:45:09;9.40;99.90
18450;DHT22;9354;50.194;7.690;2023-04-01T06:47:49;9.40;99.90
18450;DHT22;9354;50.194;7.690;2023-04-01T06:50:24;9.40;99.90
18450;DHT22;9354;50.194;7.690;2023-04-01T06:52:59;9.40;99.90
18450;DHT22;9354;50.194;7.690;2023-04-01T06:55:34;9.40;99.90
18450;DHT22;9354;50.194;7.690;2023-04-01T06:58:05;9.50;99.90
18450;DHT22;9354;50.194;7.690;2023-04-01T07:00:37;9.50;99.90
18450;DHT22;9354;50.194;7.690;2023-04-01T07:03:13;9.50;99.90
18450;DHT22;9354;50.194;7.690;2023-04-01T07:05:43;9.50;99.90
18450;DHT22;9354;50.194;7.690;2023-04-01T07:08:15;9.60;99.90
18450;DHT22;9354;50.194;7.690;2023-04-01T07:10:48;9.60;99.90
18450;DHT22;9354;50.194;7.690;2023-04-01T07:13:22;9.60;99.90
18450;DHT22;9354;50.194;7.690;2023-04-01T07:15:58;9.60;99.90
18450;DHT22;9354;50.194;7.690;2023-04-01T07:18:34;9.70;99.90
18450;DHT22;9354;50.194;7.690;2023-04-01T07:21:05;9.70;99.90
18450;DHT22;9354;50.194;7.690;2023-04-01T07:23:40;9.70;99.90
18450;DHT22;9354;50.194;7.690;2023-04-01T07:26:18;9.70;99.90
18450;DHT22;9354;50.194;7.690;2023-04-01T07:28:46;9.70;99.90
18450;DHT22;9354;50.194;7.690;2023-04-01T07:31:20;9.80;99.90
18450;DHT22;9354;50.194;7.690;2023-04-01T07:33:58;9.80;99.90
18450;DHT22;9354;50.194;7.690;2023-04-01T07:36:33;9.80;99.90
18450;DHT22;9354;50.194;7.690;2023-04-01T07:39:12;9.80;99.90
18450;DHT22;9354;50.194;7.690;2023-04-01T07:41:51;9.80;99.90
18450;DHT22;9354;50.194;7.690;2023-04-01T07:44:29;9.90;99.90
18450;DHT22;9354;50.194;7.690;2023-04-01T07:47:13;9.90;99.90
18450;DHT22;9354;50.194;7.690;2023-04-01T07:49:55;9.90;99.90
18450;DHT22;9354;50.194;7.690;2023-04-01T07:52:29;9.90;99.90
18450;DHT22;9354;50.194;7.690;2023-04-01T07:55:03;9.90;99.90
18450;DHT22;9354;50.194;7.690;2023-04-01T07:57:37;9.90;99.90
18450;DHT22;9354;50.194;7.690;2023-04-01T08:00:13;9.90;99.90
18450;DHT22;9354;50.194;7.690;2023-04-01T08:02:56;9.90;99.90
18450;DHT22;9354;50.194;7.690;2023-04-01T08:05:28;9.90;99.90
18450;DHT22;9354;50.194;7.690;2023-04-01T08:08:04;9.90;99.90
18450;DHT22;9354;50.194;7.690;2023-04-01T08:10:38;9.90;99.90
18450;DHT22;9354;50.194;7.690;2023-04-01T08:13:13;10.00;99.90
18450;DHT22;9354;50.194;7.690;2023-04-01T08:15:51;10.00;99.90
18450;DHT22;9354;50.194;7.690;2023-04-01T08:18:30;10.00;99.90
18450;DHT22;9354;50.194;7.690;2023-04-01T08:21:05;10.00;99.90
18450;DHT22;9354;50.194;7.690;2023-04-01T08:23:40;10.00;99.90
18450;DHT22;9354;50.194;7.690;2023-04-01T08:26:15;10.00;99.90
18450;DHT22;9354;50.194;7.690;2023-04-01T08:28:50;10.00;99.90
18450;DHT22;9354;50.194;7.690;2023-04-01T08:31:23;10.00;99.90
18450;DHT22;9354;50.194;7.690;2023-04-01T08:33:54;10.10;99.90
18450;DHT22;9354;50.194;7.690;2023-04-01T08:36:26;10.10;99.90
18450;DHT22;9354;50.194;7.690;2023-04-01T08:38:59;10.10;99.90
18450;DHT22;9354;50.194;7.690;2023-04-01T08:48:16;10.20;99.90
18450;DHT22;9354;50.194;7.690;2023-04-01T08:51:04;10.20;99.90
18450;DHT22;9354;50.194;7.690;2023-04-01T08:53:52;10.20;99.90
18450;DHT22;9354;50.194;7.690;2023-04-01T08:56:28;10.30;99.90
18450;DHT22;9354;50.194;7.690;2023-04-01T08:59:08;10.30;99.90
18450;DHT22;9354;50.194;7.690;2023-04-01T09:01:57;10.40;99.90
18450;DHT22;9354;50.194;7.690;2023-04-01T09:07:33;10.50;99.90
18450;DHT22;9354;50.194;7.690;2023-04-01T09:10:24;10.50;99.90
18450;DHT22;9354;50.194;7.690;2023-04-01T09:13:10;10.60;99.90
18450;DHT22;9354;50.194;7.690;2023-04-01T09:16:05;10.60;99.90
18450;DHT22;9354;50.194;7.690;2023-04-01T09:19:15;10.60;99.90
18450;DHT22;9354;50.194;7.690;2023-04-01T09:24:52;10.70;99.90
18450;DHT22;9354;50.194;7.690;2023-04-01T09:27:27;10.70;99.90
18450;DHT22;9354;50.194;7.690;2023-04-01T09:33:58;10.80;99.90
18450;DHT22;9354;50.194;7.690;2023-04-01T09:36:43;10.90;99.90
18450;DHT22;9354;50.194;7.690;2023-04-01T09:39:25;10.80;99.90
18450;DHT22;9354;50.194;7.690;2023-04-01T09:45:09;10.80;99.90
18450;DHT22;9354;50.194;7.690;2023-04-01T09:47:51;10.80;99.90
18450;DHT22;9354;50.194;7.690;2023-04-01T09:50:31;10.80;99.90
18450;DHT22;9354;50.194;7.690;2023-04-01T09:53:14;10.70;99.90
18450;DHT22;9354;50.194;7.690;2023-04-01T09:56:23;10.70;99.90
18450;DHT22;9354;50.194;7.690;2023-04-01T09:59:32;10.80;99.90
18450;DHT22;9354;50.194;7.690;2023-04-01T10:02:47;10.80;99.90
18450;DHT22;9354;50.194;7.690;2023-04-01T10:05:58;10.80;99.90
18450;DHT22;9354;50.194;7.690;2023-04-01T10:12:15;10.80;99.90
18450;DHT22;9354;50.194;7.690;2023-04-01T10:18:44;10.90;99.90
18450;DHT22;9354;50.194;7.690;2023-04-01T10:24:45;11.00;99.90
18450;DHT22;9354;50.194;7.690;2023-04-01T10:27:33;11.00;99.90
18450;DHT22;9354;50.194;7.690;2023-04-01T10:30:32;11.00;99.90
18450;DHT22;9354;50.194;7.690;2023-04-01T10:33:34;11.00;99.90
18450;DHT22;9354;50.194;7.690;2023-04-01T10:46:07;11.00;99.90
18450;DHT22;9354;50.194;7.690;2023-04-01T10:52:24;11.10;99.90
18450;DHT22;9354;50.194;7.690;2023-04-01T10:55:10;11.20;99.90
18450;DHT22;9354;50.194;7.690;2023-04-01T10:58:15;11.30;99.90
18450;DHT22;9354;50.194;7.690;2023-04-01T11:01:11;11.30;99.90
18450;DHT22;9354;50.194;7.690;2023-04-01T11:07:34;11.40;99.90
18450;DHT22;9354;50.194;7.690;2023-04-01T11:23:03;11.20;99.90
18450;DHT22;9354;50.194;7.690;2023-04-01T11:26:02;11.10;99.90
18450;DHT22;9354;50.194;7.690;2023-04-01T11:28:51;11.10;99.90
18450;DHT22;9354;50.194;7.690;2023-04-01T11:31:35;11.10;99.90
18450;DHT22;9354;50.194;7.690;2023-04-01T11:34:16;11.10;99.90
18450;DHT22;9354;50.194;7.690;2023-04-01T11:36:55;11.10;99.90
18450;DHT22;9354;50.194;7.690;2023-04-01T11:39:36;11.10;99.90
18450;DHT22;9354;50.194;7.690;2023-04-01T11:42:13;11.00;99.90
18450;DHT22;9354;50.194;7.690;2023-04-01T11:44:47;11.10;99.90
18450;DHT22;9354;50.194;7.690;2023-04-01T11:47:45;11.10;99.90
18450;DHT22;9354;50.194;7.690;2023-04-01T11:50:24;11.00;99.90
18450;DHT22;9354;50.194;7.690;2023-04-01T11:53:09;11.00;99.90
18450;DHT22;9354;50.194;7.690;2023-04-01T11:55:50;11.00;99.90
18450;DHT22;9354;50.194;7.690;2023-04-01T11:58:46;11.00;99.90
18450;DHT22;9354;50.194;7.690;2023-04-01T12:01:27;11.10;99.90
18450;DHT22;9354;50.194;7.690;2023-04-01T12:04:25;11.20;99.90
18450;DHT22;9354;50.194;7.690;2023-04-01T12:07:00;11.30;99.90
18450;DHT22;9354;50.194;7.690;2023-04-01T12:09:36;11.40;99.90
18450;DHT22;9354;50.194;7.690;2023-04-01T12:12:17;11.50;99.90
18450;DHT22;9354;50.194;7.690;2023-04-01T12:14:54;11.60;99.90
18450;DHT22;9354;50.194;7.690;2023-04-01T12:17:34;11.70;99.90
18450;DHT22;9354;50.194;7.690;2023-04-01T12:23:14;11.90;99.90
18450;DHT22;9354;50.194;7.690;2023-04-01T12:29:04;12.00;99.90
18450;DHT22;9354;50.194;7.690;2023-04-01T12:31:46;12.00;99.90
18450;DHT22;9354;50.194;7.690;2023-04-01T12:34:31;12.00;99.90
18450;DHT22;9354;50.194;7.690;2023-04-01T12:37:06;12.00;99.90
18450;DHT22;9354;50.194;7.690;2023-04-01T12:39:51;12.00;99.90
18450;DHT22;9354;50.194;7.690;2023-04-01T12:42:35;12.00;99.90
18450;DHT22;9354;50.194;7.690;2023-04-01T12:45:27;12.00;99.90
18450;DHT22;9354;50.194;7.690;2023-04-01T12:48:19;12.00;99.90
18450;DHT22;9354;50.194;7.690;2023-04-01T12:54:12;11.90;99.90
18450;DHT22;9354;50.194;7.690;2023-04-01T12:56:52;11.90;99.90
18450;DHT22;9354;50.194;7.690;2023-04-01T12:59:38;11.90;99.90
18450;DHT22;9354;50.194;7.690;2023-04-01T13:02:12;11.90;99.90
18450;DHT22;9354;50.194;7.690;2023-04-01T13:05:10;11.90;99.90
18450;DHT22;9354;50.194;7.690;2023-04-01T13:08:02;11.90;99.90
18450;DHT22;9354;50.194;7.690;2023-04-01T13:10:42;11.90;99.90
18450;DHT22;9354;50.194;7.690;2023-04-01T13:13:34;11.80;99.90
18450;DHT22;9354;50.194;7.690;2023-04-01T13:16:08;11.80;99.90
18450;DHT22;9354;50.194;7.690;2023-04-01T13:18:50;11.80;99.90
18450;DHT22;9354;50.194;7.690;2023-04-01T13:21:30;11.80;99.90
18450;DHT22;9354;50.194;7.690;2023-04-01T13:24:07;11.80;99.90
18450;DHT22;9354;50.194;7.690;2023-04-01T13:26:41;11.70;99.90
18450;DHT22;9354;50.194;7.690;2023-04-01T13:29:13;11.70;99.90
18450;DHT22;9354;50.194;7.690;2023-04-01T13:31:55;11.80;99.90
18450;DHT22;9354;50.194;7.690;2023-04-01T13:34:35;11.80;99.90
18450;DHT22;9354;50.194;7.690;2023-04-01T13:37:22;11.80;99.90
18450;DHT22;9354;50.194;7.690;2023-04-01T13:40:13;11.70;99.90
18450;DHT22;9354;50.194;7.690;2023-04-01T13:42:47;11.70;99.90
18450;DHT22;9354;50.194;7.690;2023-04-01T13:45:19;11.80;99.90
18450;DHT22;9354;50.194;7.690;2023-04-01T13:51:07;11.90;99.90
18450;DHT22;9354;50.194;7.690;2023-04-01T13:54:08;12.00;99.90
18450;DHT22;9354;50.194;7.690;2023-04-01T13:56:50;12.10;99.90
18450;DHT22;9354;50.194;7.690;2023-04-01T13:59:40;12.10;99.90
18450;DHT22;9354;50.194;7.690;2023-04-01T14:02:38;12.10;99.90
18450;DHT22;9354;50.194;7.690;2023-04-01T14:05:32;12.00;99.90
18450;DHT22;9354;50.194;7.690;2023-04-01T14:08:10;11.90;99.90
18450;DHT22;9354;50.194;7.690;2023-04-01T14:10:44;11.80;99.90
18450;DHT22;9354;50.194;7.690;2023-04-01T14:13:21;11.70;99.90
18450;DHT22;9354;50.194;7.690;2023-04-01T14:16:00;11.60;99.90
18450;DHT22;9354;50.194;7.690;2023-04-01T14:18:42;11.60;99.90
18450;DHT22;9354;50.194;7.690;2023-04-01T14:21:26;11.70;99.90
18450;DHT22;9354;50.194;7.690;2023-04-01T14:27:10;12.10;99.90
18450;DHT22;9354;50.194;7.690;2023-04-01T14:29:54;12.40;99.90
18450;DHT22;9354;50.194;7.690;2023-04-01T14:32:30;12.40;99.90
18450;DHT22;9354;50.194;7.690;2023-04-01T14:35:16;12.40;99.90
18450;DHT22;9354;50.194;7.690;2023-04-01T14:38:02;12.30;99.90
18450;DHT22;9354;50.194;7.690;2023-04-01T14:40:46;12.40;99.90
18450;DHT22;9354;50.194;7.690;2023-04-01T14:43:29;12.50;99.90
18450;DHT22;9354;50.194;7.690;2023-04-01T14:46:13;12.50;99.90
18450;DHT22;9354;50.194;7.690;2023-04-01T14:48:53;12.50;99.90
18450;DHT22;9354;50.194;7.690;2023-04-01T14:51:29;12.50;99.90
18450;DHT22;9354;50.194;7.690;2023-04-01T14:54:04;12.60;99.90
18450;DHT22;9354;50.194;7.690;2023-04-01T14:56:38;12.50;99.90
18450;DHT22;9354;50.194;7.690;2023-04-01T14:59:10;12.50;99.90
18450;DHT22;9354;50.194;7.690;2023-04-01T15:01:44;12.40;99.90
18450;DHT22;9354;50.194;7.690;2023-04-01T15:07:27;12.30;99.90
18450;DHT22;9354;50.194;7.690;2023-04-01T15:10:04;12.20;99.90
18450;DHT22;9354;50.194;7.690;2023-04-01T15:12:40;12.10;99.90
18450;DHT22;9354;50.194;7.690;2023-04-01T15:15:27;12.10;99.90
18450;DHT22;9354;50.194;7.690;2023-04-01T15:18:08;12.20;99.90
18450;DHT22;9354;50.194;7.690;2023-04-01T15:23:40;12.30;99.90
18450;DHT22;9354;50.194;7.690;2023-04-01T15:26:22;12.30;99.90
18450;DHT22;9354;50.194;7.690;2023-04-01T15:29:06;12.30;99.90
18450;DHT22;9354;50.194;7.690;2023-04-01T15:31:40;12.30;99.90
18450;DHT22;9354;50.194;7.690;2023-04-01T15:34:25;12.30;99.90
18450;DHT22;9354;50.194;7.690;2023-04-01T15:36:59;12.30;99.90
18450;DHT22;9354;50.194;7.690;2023-04-01T15:39:38;12.30;99.90
18450;DHT22;9354;50.194;7.690;2023-04-01T15:42:19;12.10;99.90
18450;DHT22;9354;50.194;7.690;2023-04-01T15:45:05;12.00;99.90
18450;DHT22;9354;50.194;7.690;2023-04-01T15:47:38;11.90;99.90
18450;DHT22;9354;50.194;7.690;2023-04-01T15:50:41;11.80;99.90
18450;DHT22;9354;50.194;7.690;2023-04-01T15:56:19;11.60;99.90
18450;DHT22;9354;50.194;7.690;2023-04-01T15:58:55;11.60;99.90
18450;DHT22;9354;50.194;7.690;2023-04-01T16:01:35;11.50;99.90
18450;DHT22;9354;50.194;7.690;2023-04-01T16:04:23;11.60;99.90
18450;DHT22;9354;50.194;7.690;2023-04-01T16:07:10;11.70;99.90
18450;DHT22;9354;50.194;7.690;2023-04-01T16:09:56;11.80;99.90
18450;DHT22;9354;50.194;7.690;2023-04-01T16:12:42;11.80;99.90
18450;DHT22;9354;50.194;7.690;2023-04-01T16:15:24;11.90;99.90
18450;DHT22;9354;50.194;7.690;2023-04-01T16:18:28;11.90;99.90
18450;DHT22;9354;50.194;7.690;2023-04-01T16:21:02;12.00;99.90
18450;DHT22;9354;50.194;7.690;2023-04-01T16:23:36;12.10;99.90
18450;DHT22;9354;50.194;7.690;2023-04-01T16:26:08;12.10;99.90
18450;DHT22;9354;50.194;7.690;2023-04-01T16:28:44;12.20;99.90
18450;DHT22;9354;50.194;7.690;2023-04-01T16:31:27;12.10;99.90
18450;DHT22;9354;50.194;7.690;2023-04-01T16:34:02;12.10;99.90
18450;DHT22;9354;50.194;7.690;2023-04-01T16:36:36;12.00;99.90
18450;DHT22;9354;50.194;7.690;2023-04-01T16:39:26;12.00;99.90
18450;DHT22;9354;50.194;7.690;2023-04-01T16:42:14;11.90;99.90
18450;DHT22;9354;50.194;7.690;2023-04-01T16:44:50;11.80;99.90
18450;DHT22;9354;50.194;7.690;2023-04-01T16:47:21;11.80;99.90
18450;DHT22;9354;50.194;7.690;2023-04-01T16:49:54;11.80;99.90
18450;DHT22;9354;50.194;7.690;2023-04-01T16:52:48;11.70;99.90
18450;DHT22;9354;50.194;7.690;2023-04-01T16:55:20;11.70;99.90
18450;DHT22;9354;50.194;7.690;2023-04-01T16:57:51;11.60;99.90
18450;DHT22;9354;50.194;7.690;2023-04-01T17:00:25;11.60;99.90
18450;DHT22;9354;50.194;7.690;2023-04-01T17:03:02;11.50;99.90
18450;DHT22;9354;50.194;7.690;2023-04-01T17:05:42;11.40;99.90
18450;DHT22;9354;50.194;7.690;2023-04-01T17:08:21;11.40;99.90
18450;DHT22;9354;50.194;7.690;2023-04-01T17:10:53;11.30;99.90
18450;DHT22;9354;50.194;7.690;2023-04-01T17:13:35;11.30;99.90
18450;DHT22;9354;50.194;7.690;2023-04-01T17:16:38;11.20;99.90
18450;DHT22;9354;50.194;7.690;2023-04-01T17:19:17;11.20;99.90
18450;DHT22;9354;50.194;7.690;2023-04-01T17:21:57;11.10;99.90
18450;DHT22;9354;50.194;7.690;2023-04-01T17:24:52;11.10;99.90
18450;DHT22;9354;50.194;7.690;2023-04-01T17:27:34;11.00;99.90
18450;DHT22;9354;50.194;7.690;2023-04-01T17:30:13;11.00;99.90
18450;DHT22;9354;50.194;7.690;2023-04-01T17:32:58;10.90;99.90
18450;DHT22;9354;50.194;7.690;2023-04-01T17:35:32;10.90;99.90
18450;DHT22;9354;50.194;7.690;2023-04-01T17:38:13;10.80;99.90
18450;DHT22;9354;50.194;7.690;2023-04-01T17:40:57;10.80;99.90
18450;DHT22;9354;50.194;7.690;2023-04-01T17:43:36;10.80;99.90
18450;DHT22;9354;50.194;7.690;2023-04-01T17:46:24;10.80;99.90
18450;DHT22;9354;50.194;7.690;2023-04-01T17:49:01;10.70;99.90
18450;DHT22;9354;50.194;7.690;2023-04-01T17:51:35;10.70;99.90
18450;DHT22;9354;50.194;7.690;2023-04-01T17:54:15;10.70;99.90
18450;DHT22;9354;50.194;7.690;2023-04-01T17:56:54;10.60;99.90
18450;DHT22;9354;50.194;7.690;2023-04-01T17:59:34;10.60;99.90
18450;DHT22;9354;50.194;7.690;2023-04-01T18:02:12;10.60;99.90
18450;DHT22;9354;50.194;7.690;2023-04-01T18:05:00;10.60;99.90
18450;DHT22;9354;50.194;7.690;2023-04-01T18:07:40;10.50;99.90
18450;DHT22;9354;50.194;7.690;2023-04-01T18:10:23;10.50;99.90
18450;DHT22;9354;50.194;7.690;2023-04-01T18:15:58;10.50;99.90
18450;DHT22;9354;50.194;7.690;2023-04-01T18:18:39;10.50;99.90
18450;DHT22;9354;50.194;7.690;2023-04-01T18:21:14;10.50;99.90
18450;DHT22;9354;50.194;7.690;2023-04-01T18:23:50;10.40;99.90
18450;DHT22;9354;50.194;7.690;2023-04-01T18:26:23;10.40;99.90
18450;DHT22;9354;50.194;7.690;2023-04-01T18:28:56;10.40;99.90
18450;DHT22;9354;50.194;7.690;2023-04-01T18:31:27;10.40;99.90
18450;DHT22;9354;50.194;7.690;2023-04-01T18:34:06;10.40;99.90